createdAt,value
2022-11-24T00:00:11.986Z,93.56
2022-11-24T00:02:38.484Z,93.74
2022-11-24T00:05:05.519Z,93.71
2022-11-24T00:07:32.023Z,93.63
2022-11-24T00:09:58.464Z,93.63
2022-11-24T00:12:24.886Z,93.60
2022-11-24T00:14:51.483Z,93.57
2022-11-24T00:17:17.882Z,93.49
2022-11-24T00:19:44.359Z,93.40
2022-11-24T00:22:10.779Z,93.46
2022-11-24T00:24:37.174Z,93.44
2022-11-24T00:27:03.656Z,93.18
2022-11-24T00:29:30.086Z,92.98
2022-11-24T00:31:57.242Z,93.05
2022-11-24T00:34:23.643Z,93.03
2022-11-24T00:36:50.096Z,93.00
2022-11-24T00:39:17.180Z,93.08
2022-11-24T00:41:43.702Z,93.26
2022-11-24T00:44:10.467Z,93.25
2022-11-24T00:46:37.327Z,93.21
2022-11-24T00:49:05.185Z,93.32
2022-11-24T00:51:31.893Z,93.24
2022-11-24T00:53:59.567Z,93.21
2022-11-24T00:56:27.925Z,93.18
2022-11-24T00:58:54.501Z,92.94
2022-11-24T01:01:26.198Z,93.00
2022-11-24T01:03:54.553Z,92.96
2022-11-24T01:06:23.844Z,92.90
2022-11-24T01:08:50.390Z,92.90
2022-11-24T01:11:19.978Z,93.12
2022-11-24T01:13:49.779Z,93.02
2022-11-24T01:16:26.918Z,93.03
2022-11-24T01:18:53.478Z,92.90
2022-11-24T01:21:20.532Z,92.92
2022-11-24T01:23:52.049Z,93.02
2022-11-24T01:26:21.487Z,92.94
2022-11-24T01:28:52.153Z,92.95
2022-11-24T01:31:21.375Z,93.02
2022-11-24T01:33:48.319Z,92.94
2022-11-24T01:36:15.153Z,92.61
2022-11-24T01:38:41.774Z,92.82
2022-11-24T01:41:11.154Z,92.82
2022-11-24T01:43:38.309Z,92.79
2022-11-24T01:46:17.605Z,92.81
2022-11-24T01:48:49.750Z,92.71
2022-11-24T01:51:30.150Z,92.74
2022-11-24T01:54:01.999Z,92.58
2022-11-24T01:56:33.711Z,92.59
2022-11-24T01:59:02.771Z,92.58
2022-11-24T02:01:31.391Z,92.43
2022-11-24T02:03:58.778Z,92.04
2022-11-24T02:06:32.239Z,92.29
2022-11-24T02:09:05.767Z,92.37
2022-11-24T02:11:37.062Z,92.20
2022-11-24T02:14:06.195Z,92.21
2022-11-24T02:16:38.938Z,92.03
2022-11-24T02:19:18.271Z,92.09
2022-11-24T02:21:44.723Z,91.82
2022-11-24T02:24:25.724Z,91.79
2022-11-24T02:26:52.521Z,91.64
2022-11-24T02:29:20.485Z,91.54
2022-11-24T02:31:55.199Z,91.29
2022-11-24T02:34:21.636Z,91.27
2022-11-24T02:36:48.022Z,91.15
2022-11-24T02:39:17.516Z,91.05
2022-11-24T02:41:49.902Z,91.16
2022-11-24T02:44:19.977Z,91.00
2022-11-24T02:46:46.416Z,90.93
2022-11-24T02:49:12.854Z,90.69
2022-11-24T02:51:42.267Z,90.88
2022-11-24T02:54:09.344Z,90.96
2022-11-24T02:56:35.846Z,90.75
2022-11-24T02:59:02.268Z,90.66
2022-11-24T03:01:28.743Z,90.56
2022-11-24T03:03:55.166Z,90.73
2022-11-24T03:06:21.584Z,90.54
2022-11-24T03:08:48.306Z,90.45
2022-11-24T03:11:14.761Z,90.62
2022-11-24T03:13:41.165Z,90.30
2022-11-24T03:16:09.634Z,90.27
2022-11-24T03:18:36.908Z,90.26
2022-11-24T03:21:03.513Z,90.24
2022-11-24T03:23:30.034Z,89.87
2022-11-24T03:26:07.001Z,89.85
2022-11-24T03:28:33.396Z,89.82
2022-11-24T03:30:59.809Z,89.84
2022-11-24T03:33:26.311Z,89.81
2022-11-24T03:35:52.751Z,89.58
2022-11-24T03:38:19.291Z,89.51
2022-11-24T03:40:47.104Z,89.68
2022-11-24T03:43:13.559Z,89.63
2022-11-24T03:45:47.534Z,89.74
2022-11-24T03:48:15.449Z,89.47
2022-11-24T03:50:41.970Z,89.46
2022-11-24T03:53:08.721Z,89.18
2022-11-24T03:55:35.663Z,88.96
2022-11-24T03:58:02.194Z,89.39
2022-11-24T04:00:28.694Z,89.51
2022-11-24T04:02:55.152Z,89.39
2022-11-24T04:05:21.634Z,89.18
2022-11-24T04:07:48.124Z,89.29
2022-11-24T04:10:14.723Z,89.24
2022-11-24T04:12:44.117Z,89.35
2022-11-24T04:15:15.728Z,89.42
2022-11-24T04:17:42.681Z,89.23
2022-11-24T04:20:10.079Z,89.30
2022-11-24T04:22:36.643Z,89.29
2022-11-24T04:25:04.002Z,89.16
2022-11-24T04:27:31.895Z,89.34
2022-11-24T04:29:58.295Z,89.27
2022-11-24T04:32:24.713Z,89.33
2022-11-24T04:34:51.017Z,89.47
2022-11-24T04:37:17.381Z,89.45
2022-11-24T04:39:45.171Z,89.68
2022-11-24T04:42:12.509Z,89.85
2022-11-24T04:44:39.262Z,89.86
2022-11-24T04:47:06.046Z,90.19
2022-11-24T04:49:32.556Z,90.19
2022-11-24T04:51:59.145Z,90.06
2022-11-24T04:54:25.451Z,90.31
2022-11-24T04:56:53.034Z,90.23
2022-11-24T04:59:19.670Z,90.18
2022-11-24T05:01:46.510Z,90.55
2022-11-24T05:04:14.740Z,90.44
2022-11-24T05:06:41.726Z,90.34
2022-11-24T05:09:08.555Z,90.42
2022-11-24T05:11:35.012Z,90.37
2022-11-24T05:14:01.905Z,90.04
2022-11-24T05:16:28.292Z,90.07
2022-11-24T05:18:54.670Z,90.07
2022-11-24T05:21:21.018Z,90.10
2022-11-24T05:23:47.322Z,90.14
2022-11-24T05:26:13.835Z,90.35
2022-11-24T05:28:40.178Z,90.34
2022-11-24T05:31:06.543Z,90.33
2022-11-24T05:33:33.295Z,90.64
2022-11-24T05:36:05.570Z,90.62
2022-11-24T05:38:32.813Z,90.63
2022-11-24T05:41:05.922Z,90.48
2022-11-24T05:43:32.255Z,90.48
2022-11-24T05:46:00.405Z,90.53
2022-11-24T05:48:26.751Z,90.66
2022-11-24T05:50:57.405Z,90.66
2022-11-24T05:53:26.165Z,90.85
2022-11-24T05:55:52.756Z,90.71
2022-11-24T05:58:19.071Z,90.89
2022-11-24T06:00:45.662Z,90.93
2022-11-24T06:03:12.527Z,91.05
2022-11-24T06:05:38.997Z,90.90
2022-11-24T06:08:05.373Z,90.94
2022-11-24T06:10:31.713Z,90.88
2022-11-24T06:12:58.232Z,90.94
2022-11-24T06:15:24.667Z,90.77
2022-11-24T06:17:56.880Z,90.84
2022-11-24T06:20:28.291Z,90.78
2022-11-24T06:22:58.761Z,90.92
2022-11-24T06:25:25.121Z,91.13
2022-11-24T06:27:51.602Z,91.02
2022-11-24T06:30:18.073Z,90.95
2022-11-24T06:32:49.366Z,91.08
2022-11-24T06:35:16.349Z,91.16
2022-11-24T06:37:42.772Z,91.03
2022-11-24T06:40:09.551Z,91.16
2022-11-24T06:42:37.129Z,91.12
2022-11-24T06:45:08.771Z,91.32
2022-11-24T06:47:35.855Z,91.44
2022-11-24T06:50:02.426Z,91.51
2022-11-24T06:52:28.750Z,91.65
2022-11-24T06:54:55.141Z,91.61
2022-11-24T06:57:21.435Z,92.01
2022-11-24T06:59:48.077Z,91.88
2022-11-24T07:02:14.377Z,91.79
2022-11-24T07:04:40.678Z,91.91
2022-11-24T07:07:07.152Z,91.95
2022-11-24T07:09:35.116Z,92.08
2022-11-24T07:12:02.459Z,92.12
2022-11-24T07:14:28.861Z,92.19
2022-11-24T07:16:56.266Z,92.15
2022-11-24T07:19:24.990Z,92.33
2022-11-24T07:21:51.715Z,92.34
2022-11-24T07:24:18.027Z,92.36
2022-11-24T07:26:44.336Z,92.34
2022-11-24T07:29:10.781Z,92.52
2022-11-24T07:31:37.155Z,92.62
2022-11-24T07:34:03.618Z,92.50
2022-11-24T07:36:30.083Z,92.57
2022-11-24T07:38:56.425Z,92.75
2022-11-24T07:41:22.867Z,92.71
2022-11-24T07:43:50.574Z,92.70
2022-11-24T07:46:19.205Z,92.72
2022-11-24T07:48:46.622Z,92.72
2022-11-24T07:51:13.314Z,92.84
2022-11-24T07:53:44.091Z,92.99
2022-11-24T07:56:10.987Z,93.03
2022-11-24T07:58:37.857Z,93.23
2022-11-24T08:01:14.799Z,93.27
2022-11-24T08:03:42.308Z,93.34
2022-11-24T08:06:25.116Z,93.31
2022-11-24T08:08:53.348Z,93.49
2022-11-24T08:11:19.782Z,93.63
2022-11-24T08:13:46.275Z,93.65
2022-11-24T08:16:15.501Z,93.58
2022-11-24T08:18:42.680Z,93.47
2022-11-24T08:21:13.286Z,93.59
2022-11-24T08:23:40.125Z,93.63
2022-11-24T08:26:09.160Z,93.64
2022-11-24T08:28:36.435Z,93.51
2022-11-24T08:31:08.825Z,93.58
2022-11-24T08:33:35.919Z,93.56
2022-11-24T08:36:06.829Z,93.74
2022-11-24T08:38:33.203Z,93.71
2022-11-24T08:41:01.672Z,93.51
2022-11-24T08:43:28.379Z,93.60
2022-11-24T08:45:54.785Z,93.59
2022-11-24T08:48:21.367Z,93.54
2022-11-24T08:50:47.691Z,93.63
2022-11-24T08:53:14.056Z,93.57
2022-11-24T08:55:40.359Z,93.34
2022-11-24T08:58:06.684Z,93.46
2022-11-24T09:00:33.139Z,93.45
2022-11-24T09:02:59.520Z,93.23
2022-11-24T09:05:50.600Z,93.05
2022-11-24T09:08:12.243Z,93.24
2022-11-24T09:10:38.604Z,93.19
2022-11-24T09:13:04.939Z,93.32
2022-11-24T09:15:31.684Z,93.35
2022-11-24T09:17:58.042Z,93.20
2022-11-24T09:20:24.402Z,92.81
2022-11-24T09:22:50.823Z,92.52
2022-11-24T09:25:17.214Z,92.26
2022-11-24T09:27:43.512Z,92.08
2022-11-24T09:30:10.566Z,92.02
2022-11-24T09:32:37.550Z,91.89
2022-11-24T09:35:04.525Z,91.96
2022-11-24T09:37:33.005Z,91.62
2022-11-24T09:39:59.776Z,91.71
2022-11-24T09:42:53.690Z,91.84
2022-11-24T09:46:05.361Z,91.63
2022-11-24T09:48:38.324Z,91.41
2022-11-24T09:51:05.975Z,91.52
2022-11-24T09:53:39.307Z,91.35
2022-11-24T09:56:20.797Z,90.64
2022-11-24T09:58:50.778Z,90.20
2022-11-24T10:01:20.785Z,88.87
2022-11-24T10:03:52.726Z,88.12
2022-11-24T10:06:37.922Z,88.43
2022-11-24T10:09:32.246Z,88.85
2022-11-24T10:12:27.947Z,89.44
2022-11-24T10:15:13.216Z,89.37
2022-11-24T10:17:51.547Z,89.73
2022-11-24T10:20:38.145Z,89.55
2022-11-24T10:23:39.755Z,89.17
2022-11-24T10:26:15.359Z,89.17
2022-11-24T10:28:51.457Z,89.50
2022-11-24T10:31:20.780Z,89.05
2022-11-24T10:33:48.159Z,88.75
2022-11-24T10:36:34.549Z,89.06
2022-11-24T10:39:33.188Z,88.64
2022-11-24T10:42:30.115Z,89.16
2022-11-24T10:45:11.857Z,88.92
2022-11-24T10:47:40.099Z,89.17
2022-11-24T10:50:27.011Z,89.05
2022-11-24T10:53:29.935Z,88.82
2022-11-24T10:55:56.309Z,87.98
2022-11-24T10:58:28.752Z,88.15
2022-11-24T11:01:19.229Z,87.46
2022-11-24T11:03:52.490Z,87.17
2022-11-24T11:06:27.087Z,87.25
2022-11-24T11:09:15.538Z,87.59
2022-11-24T11:11:44.243Z,87.32
2022-11-24T11:14:14.165Z,86.69
2022-11-24T11:16:41.961Z,87.04
2022-11-24T11:20:01.664Z,86.96
2022-11-24T11:22:31.923Z,86.06
2022-11-24T11:25:17.268Z,85.73
2022-11-24T11:27:43.638Z,85.62
2022-11-24T11:36:12.133Z,85.93
2022-11-24T11:38:40.133Z,85.64
2022-11-24T11:41:17.798Z,85.23
2022-11-24T11:43:46.922Z,84.85
2022-11-24T11:46:19.020Z,84.11
2022-11-24T11:48:50.243Z,83.92
2022-11-24T11:51:38.344Z,84.28
2022-11-24T11:54:32.887Z,83.88
2022-11-24T11:57:37.615Z,84.17
2022-11-24T12:00:18.628Z,83.88
2022-11-24T12:03:09.363Z,82.98
2022-11-24T12:06:15.822Z,83.47
2022-11-24T12:09:22.251Z,82.81
2022-11-24T12:12:12.847Z,82.84
2022-11-24T12:15:17.702Z,82.48
2022-11-24T12:17:51.722Z,82.66
2022-11-24T12:20:36.592Z,82.48
2022-11-24T12:23:24.039Z,81.98
2022-11-24T12:25:59.159Z,82.41
2022-11-24T12:28:52.412Z,82.20
2022-11-24T12:31:55.112Z,82.23
2022-11-24T12:34:44.774Z,81.61
2022-11-24T12:37:45.972Z,82.05
2022-11-24T12:40:33.743Z,82.07
2022-11-24T12:43:03.158Z,81.95
2022-11-24T12:45:35.298Z,81.97
2022-11-24T12:48:07.470Z,82.18
2022-11-24T12:50:38.581Z,82.01
2022-11-24T12:53:23.144Z,81.75
2022-11-24T12:55:50.243Z,81.94
2022-11-24T12:58:39.566Z,81.39
2022-11-24T13:01:22.183Z,81.56
2022-11-24T13:04:01.699Z,81.61
2022-11-24T13:06:34.147Z,81.62
2022-11-24T13:09:07.966Z,81.30
2022-11-24T13:11:45.925Z,81.17
2022-11-24T13:14:30.538Z,80.91
2022-11-24T13:19:49.729Z,80.86
2022-11-24T13:22:24.159Z,81.32
2022-11-24T13:25:15.331Z,80.91
2022-11-24T13:27:44.417Z,80.67
2022-11-24T13:30:35.713Z,81.05
2022-11-24T13:33:16.233Z,80.62
2022-11-24T13:36:03.996Z,80.88
2022-11-24T13:38:41.639Z,81.00
2022-11-24T13:41:27.650Z,80.94
2022-11-24T13:44:14.625Z,80.84
2022-11-24T13:47:06.805Z,81.09
2022-11-24T13:49:41.762Z,80.84
2022-11-24T13:52:35.951Z,80.48
2022-11-24T13:55:19.387Z,81.11
2022-11-24T13:58:08.833Z,80.69
2022-11-24T14:00:58.392Z,80.70
2022-11-24T14:03:30.038Z,80.47
2022-11-24T14:05:57.070Z,80.52
2022-11-24T14:08:30.028Z,80.74
2022-11-24T14:10:58.562Z,80.67
2022-11-24T14:13:34.246Z,80.40
2022-11-24T14:16:15.169Z,80.46
2022-11-24T14:18:47.283Z,80.89
2022-11-24T14:21:29.875Z,80.91
2022-11-24T14:24:09.274Z,81.10
2022-11-24T14:26:38.609Z,80.53
2022-11-24T14:29:06.951Z,80.84
2022-11-24T14:31:33.883Z,80.79
2022-11-24T14:34:17.663Z,81.04
2022-11-24T14:36:44.161Z,81.12
2022-11-24T14:39:17.716Z,81.17
2022-11-24T14:41:52.362Z,81.42
2022-11-24T14:44:25.233Z,81.36
2022-11-24T14:47:01.842Z,81.67
2022-11-24T14:49:28.665Z,81.79
2022-11-24T14:52:00.388Z,81.89
2022-11-24T14:54:27.059Z,82.33
2022-11-24T14:57:04.580Z,82.37
2022-11-24T14:59:38.108Z,82.55
2022-11-24T15:02:39.124Z,82.74
2022-11-24T15:05:06.603Z,82.91
2022-11-24T15:07:38.068Z,82.96
2022-11-24T15:10:20.579Z,83.16
2022-11-24T15:12:56.229Z,83.28
2022-11-24T15:15:38.534Z,83.24
2022-11-24T15:18:06.369Z,83.69
2022-11-24T15:20:45.460Z,83.33
2022-11-24T15:23:26.274Z,83.96
2022-11-24T15:26:17.346Z,84.03
2022-11-24T15:28:46.450Z,84.10
2022-11-24T15:31:13.977Z,84.10
2022-11-24T15:33:41.397Z,84.35
2022-11-24T15:36:08.019Z,84.52
2022-11-24T15:38:34.390Z,84.54
2022-11-24T15:41:01.645Z,84.63
2022-11-24T15:43:40.121Z,84.54
2022-11-24T15:46:08.472Z,84.94
2022-11-24T15:48:34.839Z,85.04
2022-11-24T15:51:05.406Z,85.31
2022-11-24T15:53:35.843Z,85.51
2022-11-24T15:56:05.757Z,85.83
2022-11-24T15:58:32.294Z,85.85
2022-11-24T16:00:58.765Z,86.05
2022-11-24T16:03:46.485Z,86.17
2022-11-24T16:06:15.847Z,86.32
2022-11-24T16:08:45.863Z,86.56
2022-11-24T16:11:12.566Z,86.55
2022-11-24T16:13:38.920Z,86.88
2022-11-24T16:16:05.655Z,87.06
2022-11-24T16:18:32.050Z,87.40
2022-11-24T16:20:58.466Z,87.35
2022-11-24T16:23:24.796Z,87.39
2022-11-24T16:25:51.298Z,87.67
2022-11-24T16:28:17.846Z,87.63
2022-11-24T16:30:48.714Z,87.49
2022-11-24T16:33:15.659Z,87.78
2022-11-24T16:35:41.979Z,87.87
2022-11-24T16:38:15.926Z,88.00
2022-11-24T16:40:42.299Z,87.99
2022-11-24T16:43:08.614Z,87.96
2022-11-24T16:45:35.049Z,88.26
2022-11-24T16:48:01.814Z,88.26
2022-11-24T16:50:28.140Z,88.30
2022-11-24T16:52:54.443Z,88.46
2022-11-24T16:55:20.798Z,88.30
2022-11-24T16:57:48.306Z,88.34
2022-11-24T17:00:15.194Z,88.27
2022-11-24T17:02:41.828Z,88.46
2022-11-24T17:05:08.876Z,88.61
2022-11-24T17:07:35.257Z,88.61
2022-11-24T17:10:01.794Z,88.63
2022-11-24T17:12:28.114Z,88.73
2022-11-24T17:15:24.592Z,89.11
2022-11-24T17:18:01.206Z,89.01
2022-11-24T17:20:28.540Z,89.30
2022-11-24T17:22:54.871Z,89.23
2022-11-24T17:25:24.127Z,89.33
2022-11-24T17:27:50.478Z,89.25
2022-11-24T17:30:17.018Z,89.67
2022-11-24T17:32:43.322Z,89.62
2022-11-24T17:35:09.634Z,89.43
2022-11-24T17:37:37.121Z,89.25
2022-11-24T17:40:27.430Z,89.42
2022-11-24T17:42:50.206Z,89.29
2022-11-24T17:45:16.509Z,89.40
2022-11-24T17:47:43.005Z,89.35
2022-11-24T17:50:09.914Z,89.53
2022-11-24T17:52:37.092Z,89.54
2022-11-24T17:55:03.563Z,89.57
2022-11-24T17:57:30.011Z,89.49
2022-11-24T17:59:56.331Z,89.64
2022-11-24T18:02:22.698Z,89.62
2022-11-24T18:04:49.131Z,89.59
2022-11-24T18:07:15.532Z,89.56
2022-11-24T18:09:41.921Z,89.54
2022-11-24T18:12:08.299Z,89.63
2022-11-24T18:14:34.810Z,89.54
2022-11-24T18:17:01.242Z,89.62
2022-11-24T18:19:27.746Z,89.54
2022-11-24T18:21:54.113Z,89.56
2022-11-24T18:24:24.106Z,89.46
2022-11-24T18:26:50.739Z,89.61
2022-11-24T18:29:17.046Z,89.56
2022-11-24T18:31:43.414Z,89.43
2022-11-24T18:34:09.825Z,89.26
2022-11-24T18:36:36.269Z,89.13
2022-11-24T18:39:05.117Z,89.05
2022-11-24T18:41:31.834Z,89.15
2022-11-24T18:44:02.093Z,88.90
2022-11-24T18:46:28.456Z,88.98
2022-11-24T18:48:54.815Z,88.72
2022-11-24T18:51:22.954Z,88.54
2022-11-24T18:53:54.259Z,88.59
2022-11-24T18:56:20.626Z,88.62
2022-11-24T18:58:50.832Z,88.60
2022-11-24T19:01:19.864Z,88.54
2022-11-24T19:03:51.567Z,88.49
2022-11-24T19:06:28.719Z,88.63
2022-11-24T19:08:55.585Z,88.70
2022-11-24T19:11:28.308Z,88.57
2022-11-24T19:13:55.838Z,88.29
2022-11-24T19:16:23.467Z,88.23
2022-11-24T19:18:54.074Z,88.30
2022-11-24T19:21:21.850Z,88.00
2022-11-24T19:23:48.269Z,88.19
2022-11-24T19:26:14.919Z,88.02
2022-11-24T19:28:41.650Z,88.21
2022-11-24T19:31:10.512Z,88.11
2022-11-24T19:33:37.039Z,87.86
2022-11-24T19:36:10.606Z,87.87
2022-11-24T19:38:36.965Z,87.77
2022-11-24T19:41:08.953Z,87.72
2022-11-24T19:43:35.409Z,87.77
2022-11-24T19:46:08.003Z,87.89
2022-11-24T19:48:37.205Z,87.69
2022-11-24T19:51:06.270Z,87.46
2022-11-24T19:53:33.370Z,87.29
2022-11-24T19:56:05.149Z,87.51
2022-11-24T19:58:32.471Z,87.47
2022-11-24T20:01:16.847Z,87.63
2022-11-24T20:03:44.924Z,87.47
2022-11-24T20:06:13.000Z,87.58
2022-11-24T20:08:40.570Z,87.63
2022-11-24T20:11:17.982Z,87.64
2022-11-24T20:13:45.983Z,87.58
2022-11-24T20:16:15.498Z,87.71
2022-11-24T20:18:43.861Z,87.60
2022-11-24T20:21:19.081Z,87.51
2022-11-24T20:23:52.175Z,87.47
2022-11-24T20:26:20.751Z,87.53
2022-11-24T20:28:47.540Z,87.33
2022-11-24T20:31:16.881Z,87.47
2022-11-24T20:33:44.179Z,87.44
2022-11-24T20:36:12.778Z,87.52
2022-11-24T20:38:40.717Z,87.43
2022-11-24T20:41:12.171Z,87.21
2022-11-24T20:43:39.725Z,87.44
2022-11-24T20:46:12.826Z,87.41
2022-11-24T20:48:39.513Z,87.41
2022-11-24T20:51:08.398Z,87.34
2022-11-24T20:53:35.752Z,87.32
2022-11-24T20:56:11.346Z,87.53
2022-11-24T20:58:38.765Z,87.32
2022-11-24T21:01:07.480Z,87.31
2022-11-24T21:03:36.217Z,87.01
2022-11-24T21:06:06.700Z,87.12
2022-11-24T21:08:36.949Z,86.80
2022-11-24T21:11:04.675Z,86.98
2022-11-24T21:13:35.121Z,86.79
2022-11-24T21:16:15.226Z,86.88
2022-11-24T21:18:43.019Z,87.13
2022-11-24T21:21:09.342Z,86.88
2022-11-24T21:23:35.905Z,87.16
2022-11-24T21:26:10.308Z,87.01
2022-11-24T21:28:42.009Z,87.04
2022-11-24T21:31:13.960Z,86.89
2022-11-24T21:33:45.310Z,86.85
2022-11-24T21:36:12.698Z,86.83
2022-11-24T21:38:39.015Z,86.81
2022-11-24T21:41:08.112Z,86.87
2022-11-24T21:43:37.907Z,86.66
2022-11-24T21:46:07.338Z,86.70
2022-11-24T21:48:35.266Z,86.69
2022-11-24T21:51:03.602Z,86.89
2022-11-24T21:53:33.205Z,87.04
2022-11-24T21:56:01.309Z,87.08
2022-11-24T21:58:32.753Z,86.81
2022-11-24T22:01:08.770Z,87.22
2022-11-24T22:03:35.251Z,87.43
2022-11-24T22:06:02.209Z,87.28
2022-11-24T22:08:30.026Z,87.38
2022-11-24T22:11:23.939Z,87.45
2022-11-24T22:13:51.494Z,87.41
2022-11-24T22:16:23.117Z,87.52
2022-11-24T22:18:50.325Z,87.37
2022-11-24T22:21:19.217Z,87.33
2022-11-24T22:23:45.516Z,87.46
2022-11-24T22:26:15.041Z,87.38
2022-11-24T22:28:42.503Z,87.42
2022-11-24T22:31:12.104Z,87.63
2022-11-24T22:33:38.930Z,87.59
2022-11-24T22:36:05.661Z,87.51
2022-11-24T22:38:32.861Z,87.46
2022-11-24T22:41:11.141Z,87.48
2022-11-24T22:43:39.635Z,87.71
2022-11-24T22:46:10.055Z,87.38
2022-11-24T22:48:37.108Z,87.49
2022-11-24T22:51:06.326Z,87.51
2022-11-24T22:53:33.095Z,87.50
2022-11-24T22:56:04.414Z,87.47
2022-11-24T22:58:32.930Z,87.38
2022-11-24T23:01:12.244Z,87.64
2022-11-24T23:03:39.810Z,87.56
2022-11-24T23:06:15.617Z,87.63
2022-11-24T23:08:42.384Z,87.72
2022-11-24T23:11:09.982Z,87.85
2022-11-24T23:13:36.989Z,87.74
2022-11-24T23:16:12.338Z,87.74
2022-11-24T23:18:39.429Z,87.91
2022-11-24T23:21:13.284Z,87.91
2022-11-24T23:23:40.376Z,87.86
2022-11-24T23:26:10.254Z,88.19
2022-11-24T23:28:37.196Z,88.29
2022-11-24T23:31:06.044Z,88.55
2022-11-24T23:33:32.704Z,88.88
2022-11-24T23:36:08.435Z,88.86
2022-11-24T23:38:35.294Z,88.88
2022-11-24T23:41:06.626Z,89.19
2022-11-24T23:43:34.077Z,89.28
2022-11-24T23:46:07.513Z,89.62
2022-11-24T23:48:34.368Z,89.83
2022-11-24T23:51:15.311Z,90.08
2022-11-24T23:53:42.653Z,90.38
2022-11-24T23:56:16.941Z,90.57
2022-11-24T23:58:44.927Z,90.94
